Time;durP1;ratioP1;P1;durP2;ratioP2;P2;SDS_P1;SDS_P2;PMS_P1;PMS_P2;Temp;Humidity;BMP_temperature;BMP_pressure;BME280_temperature;BME280_humidity;BME280_pressure;Samples;Min_cycle;Max_cycle;Signal;HPM_P1;HPM_P2
2022/11/03 00:01:51;;;;;;;6.30;5.30;;;9.40;99.90;;;;;;6193729;23;20181;-65
2022/11/03 00:04:19;;;;;;;5.33;4.90;;;9.50;99.90;;;;;;6194085;23;20168;-65
2022/11/03 00:06:49;;;;;;;7.53;5.60;;;9.50;99.90;;;;;;6193996;23;20226;-66
2022/11/03 00:09:17;;;;;;;5.67;5.27;;;9.50;99.90;;;;;;6194395;23;20136;-65
2022/11/03 00:11:44;;;;;;;7.13;5.60;;;9.50;99.90;;;;;;6194176;23;20202;-65
2022/11/03 00:14:11;;;;;;;10.37;5.60;;;9.60;99.90;;;;;;6194292;23;20171;-65
2022/11/03 00:16:38;;;;;;;6.00;5.50;;;9.60;99.90;;;;;;6194045;23;20147;-65
2022/11/03 00:19:04;;;;;;;7.37;5.63;;;9.70;99.90;;;;;;6182447;23;20162;-66
2022/11/03 00:21:30;;;;;;;4.53;4.33;;;9.70;99.90;;;;;;6193543;23;20522;-66
2022/11/03 00:23:56;;;;;;;7.73;5.43;;;9.80;99.90;;;;;;6193899;23;20163;-65
2022/11/03 00:26:23;;;;;;;6.33;5.73;;;9.80;99.90;;;;;;6193524;23;20482;-65
2022/11/03 00:28:51;;;;;;;6.90;5.27;;;9.80;99.90;;;;;;6193968;23;20482;-65
2022/11/03 00:31:25;;;;;;;7.10;5.50;;;9.80;99.90;;;;;;6193460;23;20140;-65
2022/11/03 00:33:52;;;;;;;5.33;4.93;;;9.80;99.90;;;;;;6193706;23;20625;-65
2022/11/03 00:36:29;;;;;;;4.63;4.43;;;9.80;99.90;;;;;;6193769;23;20532;-65
2022/11/03 00:38:55;;;;;;;8.80;4.90;;;9.80;99.90;;;;;;6182005;23;20151;-65
2022/11/03 00:41:21;;;;;;;5.37;4.73;;;9.80;99.90;;;;;;6181830;23;20180;-65
2022/11/03 00:43:48;;;;;;;5.17;4.80;;;9.90;99.90;;;;;;6193434;23;20187;-65
2022/11/03 00:46:14;;;;;;;5.80;5.30;;;9.90;99.90;;;;;;6157330;23;20166;-65
2022/11/03 00:48:40;;;;;;;6.27;5.60;;;9.90;99.90;;;;;;6193757;23;20148;-65
2022/11/03 00:51:13;;;;;;;9.83;5.10;;;9.90;99.90;;;;;;6193280;23;20154;-65
2022/11/03 00:53:53;;;;;;;5.93;5.47;;;9.90;99.90;;;;;;6182406;23;20178;-65
2022/11/03 00:56:24;;;;;;;6.00;5.50;;;9.90;99.90;;;;;;6193641;23;20136;-65
2022/11/03 00:58:51;;;;;;;8.47;5.57;;;9.90;99.90;;;;;;6193447;23;20175;-66
2022/11/03 01:01:22;;;;;;;5.97;5.47;;;9.90;99.90;;;;;;6193227;23;20450;-65
2022/11/03 01:06:49;;;;;;;7.23;6.50;;;9.90;99.90;;;;;;6194155;23;20139;-66
2022/11/03 01:09:15;;;;;;;6.37;5.90;;;9.90;99.90;;;;;;6193426;23;20142;-66
2022/11/03 01:11:43;;;;;;;6.23;5.73;;;9.90;99.90;;;;;;6193466;23;20179;-66
2022/11/03 01:14:12;;;;;;;6.33;5.50;;;9.90;99.90;;;;;;6192067;23;20172;-65
2022/11/03 01:16:38;;;;;;;6.23;5.57;;;9.90;99.90;;;;;;6181944;23;20617;-65
2022/11/03 01:19:03;;;;;;;5.10;4.57;;;9.80;99.90;;;;;;6193076;23;20255;-66
2022/11/03 01:21:29;;;;;;;5.43;4.93;;;9.80;99.90;;;;;;6193186;23;20265;-65
2022/11/03 01:23:55;;;;;;;8.30;5.27;;;9.90;99.90;;;;;;6193211;23;20159;-65
2022/11/03 01:26:21;;;;;;;11.33;5.23;;;9.90;99.90;;;;;;6193500;23;20156;-66
2022/11/03 01:28:47;;;;;;;5.60;5.10;;;9.80;99.90;;;;;;6193663;23;20148;-66
2022/11/03 01:31:20;;;;;;;6.37;5.87;;;9.80;99.90;;;;;;6193252;23;20148;-66
2022/11/03 01:33:48;;;;;;;6.40;5.80;;;9.80;99.90;;;;;;6193316;23;20183;-65
2022/11/03 01:36:14;;;;;;;7.43;5.90;;;9.80;99.90;;;;;;6193270;23;20147;-65
2022/11/03 01:38:41;;;;;;;5.70;5.20;;;9.80;99.90;;;;;;6181732;23;20501;-65
2022/11/03 01:41:10;;;;;;;6.03;5.60;;;9.80;99.90;;;;;;6191760;23;20235;-65
2022/11/03 01:43:38;;;;;;;10.57;6.00;;;9.80;99.90;;;;;;6193481;23;20607;-65
2022/11/03 01:46:18;;;;;;;11.10;6.37;;;9.80;99.90;;;;;;6193418;23;20583;-65
2022/11/03 01:48:52;;;;;;;8.17;5.73;;;9.80;99.90;;;;;;6193369;23;20147;-65
2022/11/03 01:51:21;;;;;;;6.50;5.40;;;9.80;99.90;;;;;;6193117;23;20467;-65
2022/11/03 01:53:51;;;;;;;5.50;5.00;;;9.80;99.90;;;;;;6193028;23;20217;-65
2022/11/03 01:56:18;;;;;;;5.97;5.43;;;9.80;99.90;;;;;;6193562;23;20223;-65
2022/11/03 01:58:48;;;;;;;4.93;4.57;;;9.80;99.90;;;;;;6193563;23;20148;-65
2022/11/03 02:01:13;;;;;;;6.07;5.43;;;9.80;99.90;;;;;;6191975;23;20144;-65
2022/11/03 02:03:45;;;;;;;6.00;5.40;;;9.80;99.90;;;;;;6193149;23;20279;-65
2022/11/03 02:06:10;;;;;;;5.50;5.10;;;9.80;99.90;;;;;;6181544;23;20136;-65
2022/11/03 02:08:57;;;;;;;5.63;5.07;;;9.90;99.90;;;;;;6193278;23;20148;-65
2022/11/03 02:14:12;;;;;;;6.30;5.60;;;9.90;99.90;;;;;;6193402;23;20174;-65
2022/11/03 02:16:40;;;;;;;6.93;5.43;;;9.90;99.90;;;;;;6183505;23;20603;-65
2022/11/03 02:19:24;;;;;;;9.57;5.37;;;9.80;99.90;;;;;;6181195;23;20167;-65
2022/11/03 02:22:04;;;;;;;9.83;5.50;;;9.90;99.90;;;;;;6181881;23;20171;-65
2022/11/03 02:24:52;;;;;;;7.90;5.17;;;9.90;99.90;;;;;;6192934;23;20158;-65
2022/11/03 02:27:19;;;;;;;5.10;4.90;;;9.90;99.90;;;;;;6193215;23;20147;-65
2022/11/03 02:29:45;;;;;;;5.33;4.93;;;9.80;99.90;;;;;;6192665;23;20148;-65
2022/11/03 02:32:25;;;;;;;7.77;5.43;;;9.90;99.90;;;;;;6193113;23;20507;-65
2022/11/03 02:35:06;;;;;;;9.10;5.67;;;9.90;99.90;;;;;;6181430;23;20155;-65
2022/11/03 02:37:39;;;;;;;5.53;5.03;;;9.90;99.90;;;;;;6193224;23;20210;-65
2022/11/03 02:40:13;;;;;;;6.40;5.27;;;9.90;99.90;;;;;;6192748;23;20140;-65
2022/11/03 02:42:42;;;;;;;5.90;5.50;;;9.90;99.90;;;;;;6192822;23;20256;-65
2022/11/03 02:45:13;;;;;;;6.70;5.50;;;9.90;99.90;;;;;;6192982;23;20599;-65
2022/11/03 02:47:40;;;;;;;6.60;4.57;;;9.90;99.90;;;;;;6193166;23;20163;-65
2022/11/03 02:50:09;;;;;;;5.53;5.13;;;9.90;99.90;;;;;;6194506;23;20478;-65
2022/11/03 02:52:42;;;;;;;11.10;5.80;;;9.90;99.90;;;;;;6194681;23;20167;-65
2022/11/03 02:55:26;;;;;;;6.07;5.67;;;10.00;99.90;;;;;;6185044;23;20548;-65
2022/11/03 02:58:27;;;;;;;9.53;6.13;;;10.00;99.90;;;;;;6194943;23;20564;-65
2022/11/03 03:01:05;;;;;;;9.57;6.50;;;10.00;99.90;;;;;;6194805;23;20174;-65
2022/11/03 03:03:42;;;;;;;8.07;6.27;;;10.00;99.90;;;;;;6194644;23;20175;-65
2022/11/03 03:06:12;;;;;;;5.67;5.27;;;10.00;99.90;;;;;;6194705;23;20174;-65
2022/11/03 03:08:45;;;;;;;8.23;5.60;;;10.00;99.90;;;;;;6194820;23;20132;-65
2022/11/03 03:11:12;;;;;;;6.87;5.80;;;10.00;99.90;;;;;;6194282;23;20139;-65
2022/11/03 03:13:40;;;;;;;5.93;5.50;;;10.00;99.90;;;;;;6193302;23;20163;-65
2022/11/03 03:16:28;;;;;;;7.87;5.90;;;10.00;99.90;;;;;;6183034;23;20160;-65
2022/11/03 03:19:01;;;;;;;6.73;5.80;;;9.90;99.90;;;;;;6194703;23;20152;-65
2022/11/03 03:21:33;;;;;;;6.00;5.50;;;10.00;99.90;;;;;;6194066;23;20163;-65
2022/11/03 03:24:05;;;;;;;6.23;5.73;;;10.00;99.90;;;;;;6194495;23;20185;-65
2022/11/03 03:26:40;;;;;;;8.37;5.47;;;10.00;99.90;;;;;;6194358;23;20136;-65
2022/11/03 03:29:19;;;;;;;7.40;5.77;;;10.00;99.90;;;;;;6184388;23;20139;-65
2022/11/03 03:31:50;;;;;;;7.90;6.23;;;10.00;99.90;;;;;;6195420;23;20473;-70
2022/11/03 03:34:18;;;;;;;9.40;6.20;;;10.00;99.90;;;;;;6203728;23;20642;-69
2022/11/03 03:36:47;;;;;;;10.87;5.63;;;10.00;99.90;;;;;;6226362;23;20143;-70
2022/11/03 03:39:14;;;;;;;5.70;5.10;;;10.00;99.90;;;;;;6225437;23;20222;-71
2022/11/03 03:41:40;;;;;;;5.63;5.33;;;10.00;99.90;;;;;;6214267;23;20183;-68
2022/11/03 03:44:09;;;;;;;6.83;6.10;;;10.00;99.90;;;;;;6225476;23;20166;-68
2022/11/03 03:46:40;;;;;;;5.80;5.30;;;9.90;99.90;;;;;;6226601;23;20565;-69
2022/11/03 03:49:06;;;;;;;12.77;6.00;;;9.90;99.90;;;;;;6225621;23;20135;-67
2022/11/03 03:51:33;;;;;;;7.07;6.47;;;9.90;99.90;;;;;;6225745;23;20535;-67
2022/11/03 03:53:59;;;;;;;8.73;6.03;;;9.90;99.90;;;;;;6213881;23;20229;-68
2022/11/03 03:57:05;;;;;;;5.77;5.30;;;9.90;99.90;;;;;;6214243;23;20158;-71
2022/11/03 03:59:31;;;;;;;7.37;5.80;;;10.00;99.90;;;;;;6214913;23;20157;-69
2022/11/03 04:01:57;;;;;;;7.27;6.53;;;10.00;99.90;;;;;;6225357;23;20254;-69
2022/11/03 04:04:23;;;;;;;11.57;5.93;;;10.00;99.90;;;;;;6225147;23;20166;-71
2022/11/03 04:07:45;;;;;;;6.47;6.00;;;10.00;99.90;;;;;;6214815;23;20582;-69
2022/11/03 04:09:35;;;;;;;6.33;5.73;;;10.00;99.90;;;;;;6215546;23;20234;-70
2022/11/03 04:22:56;;;;;;;5.70;5.20;;;10.00;99.90;;;;;;6225335;23;20212;-70
2022/11/03 04:25:22;;;;;;;8.27;5.83;;;10.00;99.90;;;;;;6225618;23;20155;-71
2022/11/03 04:27:47;;;;;;;9.33;6.43;;;10.00;99.90;;;;;;6225533;23;20226;-69
2022/11/03 04:30:15;;;;;;;7.20;6.37;;;10.00;99.90;;;;;;6224871;23;20525;-72
2022/11/03 04:32:42;;;;;;;10.50;5.93;;;10.00;99.90;;;;;;6213654;23;20158;-69
2022/11/03 04:35:24;;;;;;;6.20;5.70;;;10.00;99.90;;;;;;6224976;23;20158;-70
2022/11/03 04:38:02;;;;;;;9.53;5.77;;;10.00;99.90;;;;;;6224652;23;20151;-71
2022/11/03 04:40:28;;;;;;;10.23;6.13;;;10.10;99.90;;;;;;6225023;23;20193;-70
2022/11/03 04:42:54;;;;;;;7.27;5.17;;;10.10;99.90;;;;;;6225144;23;20174;-70
2022/11/03 04:45:28;;;;;;;8.07;5.47;;;10.10;99.90;;;;;;6225309;23;20147;-68
2022/11/03 04:47:54;;;;;;;6.43;5.97;;;10.10;99.90;;;;;;6224758;23;20139;-69
2022/11/03 04:50:22;;;;;;;8.13;5.00;;;10.10;99.90;;;;;;6224797;23;20143;-69
2022/11/03 04:52:53;;;;;;;8.33;6.53;;;10.10;99.90;;;;;;6213277;23;20155;-66
2022/11/03 04:55:19;;;;;;;5.93;5.40;;;10.10;99.90;;;;;;6225585;23;20136;-70
2022/11/03 04:57:50;;;;;;;6.43;5.80;;;10.10;99.90;;;;;;6225408;23;20142;-68
2022/11/03 05:00:17;;;;;;;7.53;5.80;;;10.10;99.90;;;;;;6225141;23;20139;-69
2022/11/03 05:02:48;;;;;;;5.50;5.10;;;10.20;99.90;;;;;;6213748;23;20182;-68
2022/11/03 05:05:19;;;;;;;6.53;5.87;;;10.20;99.90;;;;;;6213724;23;20665;-69
2022/11/03 05:07:47;;;;;;;6.23;5.30;;;10.20;99.90;;;;;;6224832;23;20214;-71
2022/11/03 05:10:19;;;;;;;10.23;5.63;;;10.20;99.90;;;;;;6224753;23;20143;-68
2022/11/03 05:12:46;;;;;;;12.50;6.00;;;10.30;99.90;;;;;;6223551;23;20153;-71
2022/11/03 05:15:30;;;;;;;7.17;6.20;;;10.30;99.90;;;;;;6224716;23;20147;-70
2022/11/03 05:18:01;;;;;;;5.37;5.00;;;10.30;99.90;;;;;;6225034;23;20609;-70
2022/11/03 05:20:33;;;;;;;5.57;5.07;;;10.50;99.90;;;;;;6224696;23;20575;-69
2022/11/03 05:22:59;;;;;;;6.03;4.93;;;10.40;99.90;;;;;;6225306;23;20189;-69
2022/11/03 05:25:40;;;;;;;6.07;5.50;;;10.40;99.90;;;;;;6213017;23;20147;-69
2022/11/03 05:28:36;;;;;;;10.30;5.20;;;10.50;99.90;;;;;;6224843;23;20131;-70
2022/11/03 05:31:22;;;;;;;8.97;5.27;;;10.50;99.90;;;;;;6199607;23;20234;-67
2022/11/03 05:33:50;;;;;;;13.10;6.03;;;10.50;99.90;;;;;;6224733;23;20408;-70
2022/11/03 05:36:20;;;;;;;5.47;5.07;;;10.50;99.90;;;;;;6224820;23;20147;-71
2022/11/03 05:38:46;;;;;;;6.63;6.13;;;10.50;99.90;;;;;;6225396;23;20154;-70
2022/11/03 05:41:25;;;;;;;10.17;5.03;;;10.60;99.90;;;;;;6224723;23;20150;-71
2022/11/03 05:44:12;;;;;;;5.00;4.60;;;10.60;99.90;;;;;;6224905;23;20174;-69
2022/11/03 05:46:37;;;;;;;8.73;5.07;;;10.50;99.90;;;;;;6188578;23;20512;-69
2022/11/03 05:49:06;;;;;;;7.60;5.53;;;10.50;99.90;;;;;;6225235;23;20170;-69
2022/11/03 05:51:36;;;;;;;5.90;5.40;;;10.50;99.90;;;;;;6213578;23;20237;-68
2022/11/03 05:54:05;;;;;;;5.63;5.30;;;10.60;99.90;;;;;;6225284;23;20167;-70
2022/11/03 05:56:33;;;;;;;5.93;5.47;;;10.60;99.90;;;;;;6213930;23;20610;-70
2022/11/03 05:59:00;;;;;;;9.03;5.87;;;10.50;99.90;;;;;;6213592;23;20166;-70
2022/11/03 06:01:36;;;;;;;8.23;6.00;;;10.50;99.90;;;;;;6224632;23;20226;-70
2022/11/03 06:04:32;;;;;;;5.93;5.63;;;10.50;99.90;;;;;;6224492;23;20172;-70
2022/11/03 06:07:04;;;;;;;5.63;5.13;;;10.50;99.90;;;;;;6212701;23;20149;-70
2022/11/03 06:09:32;;;;;;;5.70;5.20;;;10.60;99.90;;;;;;6211740;23;20676;-65
2022/11/03 06:12:01;;;;;;;11.03;5.57;;;10.60;99.90;;;;;;6223474;23;20258;-65
2022/11/03 06:14:29;;;;;;;7.13;6.07;;;10.60;99.90;;;;;;6223303;23;20167;-65
2022/11/03 06:16:58;;;;;;;11.33;5.53;;;10.60;99.90;;;;;;6223131;23;20231;-66
2022/11/03 06:19:26;;;;;;;9.57;5.90;;;10.60;99.90;;;;;;6222958;23;20150;-66
2022/11/03 06:21:55;;;;;;;6.03;5.17;;;10.60;99.90;;;;;;6222995;23;20193;-64
2022/11/03 06:24:25;;;;;;;15.93;5.43;;;10.50;99.90;;;;;;6212564;23;20170;-65
2022/11/03 06:26:51;;;;;;;6.23;5.70;;;10.60;99.90;;;;;;6225393;23;20586;-65
2022/11/03 06:29:18;;;;;;;9.10;6.30;;;10.60;99.90;;;;;;6224937;23;20150;-65
2022/11/03 06:31:48;;;;;;;6.73;6.03;;;10.60;99.90;;;;;;6225435;23;20201;-65
2022/11/03 06:34:46;;;;;;;7.50;5.90;;;10.50;99.90;;;;;;6225454;23;20183;-65
2022/11/03 06:37:22;;;;;;;6.23;5.43;;;10.50;99.90;;;;;;6213358;23;20162;-65
2022/11/03 06:39:50;;;;;;;7.50;5.77;;;10.50;99.90;;;;;;6224929;23;20131;-65
2022/11/03 06:42:19;;;;;;;8.33;5.60;;;10.50;99.90;;;;;;6225007;23;20425;-65
2022/11/03 06:44:48;;;;;;;14.27;6.47;;;10.60;99.90;;;;;;6225237;23;20165;-65
2022/11/03 06:47:25;;;;;;;8.90;6.50;;;10.60;99.90;;;;;;6224869;23;20461;-65
2022/11/03 06:49:57;;;;;;;6.77;5.30;;;10.70;99.90;;;;;;6224486;23;20184;-65
2022/11/03 06:52:22;;;;;;;10.87;5.60;;;10.70;99.90;;;;;;6224914;23;20135;-65
2022/11/03 06:54:52;;;;;;;5.90;5.33;;;10.70;99.90;;;;;;6213060;23;20208;-65
2022/11/03 06:57:18;;;;;;;5.63;5.00;;;10.70;99.90;;;;;;6213251;23;20201;-65
2022/11/03 06:59:44;;;;;;;8.60;5.73;;;10.70;99.90;;;;;;6224629;23;20151;-65
2022/11/03 07:02:47;;;;;;;8.70;6.20;;;10.70;99.90;;;;;;6224818;23;20182;-65
2022/11/03 07:05:22;;;;;;;6.17;5.53;;;10.80;99.90;;;;;;6224774;23;20171;-64
2022/11/03 07:07:49;;;;;;;9.43;5.60;;;10.80;99.90;;;;;;6214860;23;20162;-65
2022/11/03 07:10:15;;;;;;;6.23;5.57;;;10.80;99.90;;;;;;6222538;23;20147;-65
2022/11/03 07:12:41;;;;;;;5.13;4.73;;;10.90;99.90;;;;;;6212258;23;20151;-65
2022/11/03 07:15:23;;;;;;;5.47;5.07;;;11.00;99.90;;;;;;6224538;23;20304;-65
2022/11/03 07:17:48;;;;;;;6.83;4.93;;;11.10;99.90;;;;;;6213019;23;20151;-65
2022/11/03 07:20:15;;;;;;;6.80;5.70;;;11.10;99.90;;;;;;6224016;23;20154;-65
2022/11/03 07:22:42;;;;;;;11.43;5.47;;;11.30;99.90;;;;;;6162993;23;20206;-65
2022/11/03 07:25:18;;;;;;;5.37;4.93;;;11.40;99.90;;;;;;6212549;23;20495;-65
2022/11/03 07:27:44;;;;;;;6.80;6.03;;;11.60;99.90;;;;;;6213052;23;20227;-64
2022/11/03 07:30:15;;;;;;;11.23;5.73;;;11.70;99.90;;;;;;6224115;23;20171;-64
2022/11/03 07:32:40;;;;;;;5.40;4.90;;;11.80;99.90;;;;;;6224190;23;20142;-64
2022/11/03 07:35:21;;;;;;;6.03;5.50;;;12.00;99.90;;;;;;6212280;23;20158;-64
2022/11/03 07:37:50;;;;;;;7.17;4.63;;;12.10;99.90;;;;;;6224314;23;20150;-64
2022/11/03 07:40:20;;;;;;;7.30;4.93;;;12.50;99.90;;;;;;6224398;23;20147;-65
2022/11/03 07:42:46;;;;;;;5.07;4.67;;;12.80;99.90;;;;;;6223980;23;20169;-65
2022/11/03 07:45:41;;;;;;;5.97;5.23;;;13.20;99.90;;;;;;6224070;23;20565;-64
2022/11/03 07:48:47;;;;;;;5.73;5.27;;;13.50;99.90;;;;;;6224336;23;20189;-65
2022/11/03 07:51:15;;;;;;;5.50;5.10;;;13.80;99.90;;;;;;6138729;23;20151;-65
2022/11/03 07:53:44;;;;;;;6.97;4.40;;;13.90;99.90;;;;;;6224461;23;20193;-65
2022/11/03 07:56:21;;;;;;;8.73;4.77;;;13.80;99.90;;;;;;6212473;23;20158;-65
2022/11/03 07:59:31;;;;;;;6.23;5.63;;;13.80;99.90;;;;;;6224036;23;20485;-65
2022/11/03 08:01:58;;;;;;;4.90;4.50;;;13.60;99.90;;;;;;6102045;23;20188;-65
2022/11/03 08:04:27;;;;;;;5.07;4.67;;;13.40;99.90;;;;;;6207728;23;20206;-65
2022/11/03 08:06:53;;;;;;;5.60;5.13;;;13.20;99.90;;;;;;6214282;23;20150;-65
2022/11/03 08:09:20;;;;;;;6.93;5.23;;;13.10;99.90;;;;;;6212479;23;20150;-65
2022/11/03 08:11:45;;;;;;;5.37;4.93;;;13.00;99.90;;;;;;6223005;23;20147;-65
2022/11/03 08:14:12;;;;;;;7.47;5.43;;;12.90;99.90;;;;;;6224156;23;20181;-65
2022/11/03 08:16:37;;;;;;;7.53;4.67;;;12.80;99.90;;;;;;6224038;23;20154;-65
2022/11/03 08:19:03;;;;;;;6.07;4.77;;;12.90;99.90;;;;;;6212414;23;20159;-65
2022/11/03 08:21:29;;;;;;;7.40;4.67;;;12.80;99.90;;;;;;6222333;23;20146;-65
2022/11/03 08:23:54;;;;;;;6.80;5.17;;;12.80;99.90;;;;;;6224104;23;20195;-65
2022/11/03 08:26:20;;;;;;;6.57;4.60;;;12.80;99.90;;;;;;6224360;23;20147;-65
2022/11/03 08:28:46;;;;;;;7.17;4.83;;;12.90;99.90;;;;;;6223840;23;20229;-65
2022/11/03 08:31:11;;;;;;;10.23;5.70;;;13.00;99.90;;;;;;6223530;23;20154;-65
2022/11/03 08:33:37;;;;;;;9.90;5.77;;;13.10;99.90;;;;;;6212533;23;20194;-64
2022/11/03 08:36:03;;;;;;;8.90;5.00;;;13.20;99.90;;;;;;6212453;23;20669;-65
2022/11/03 08:38:29;;;;;;;7.57;4.77;;;13.20;99.90;;;;;;6222894;23;20147;-66
2022/11/03 08:40:57;;;;;;;6.67;4.70;;;13.30;99.90;;;;;;6211661;23;20186;-65
2022/11/03 08:43:23;;;;;;;5.80;5.27;;;13.40;99.90;;;;;;6223883;23;20553;-65
2022/11/03 08:45:52;;;;;;;7.40;5.70;;;13.40;99.90;;;;;;6221726;23;20147;-65
2022/11/03 08:48:22;;;;;;;10.20;5.83;;;13.50;99.90;;;;;;6223940;23;20224;-66
2022/11/03 08:50:53;;;;;;;8.10;5.00;;;13.50;99.90;;;;;;6223098;23;20244;-65
2022/11/03 08:53:19;;;;;;;9.53;5.00;;;13.60;99.90;;;;;;6223603;23;20507;-65
2022/11/03 08:55:44;;;;;;;4.90;4.40;;;13.70;99.90;;;;;;6223685;23;20151;-65
2022/11/03 08:58:10;;;;;;;5.70;5.20;;;13.70;99.90;;;;;;6223628;23;20150;-65
2022/11/03 09:00:36;;;;;;;12.07;5.00;;;13.80;99.90;;;;;;6223235;23;20151;-66
2022/11/03 09:03:02;;;;;;;7.30;5.20;;;13.90;99.90;;;;;;6223319;23;20209;-66
2022/11/03 09:05:27;;;;;;;8.43;4.70;;;14.00;99.90;;;;;;6223452;23;20598;-64
2022/11/03 09:07:53;;;;;;;6.07;5.40;;;14.10;99.90;;;;;;6223724;23;20138;-65
2022/11/03 09:10:18;;;;;;;6.57;4.57;;;14.20;99.90;;;;;;6223186;23;20644;-65
2022/11/03 09:12:44;;;;;;;4.50;4.20;;;14.30;99.90;;;;;;6221304;23;20147;-66
2022/11/03 09:15:10;;;;;;;4.73;4.40;;;14.40;99.90;;;;;;6223414;23;20150;-65
2022/11/03 09:17:36;;;;;;;4.63;4.30;;;14.50;99.90;;;;;;6224237;23;20472;-65
2022/11/03 09:20:02;;;;;;;5.93;5.37;;;14.60;99.90;;;;;;6211360;23;20157;-65
2022/11/03 09:22:27;;;;;;;6.23;4.73;;;14.60;99.90;;;;;;6211744;23;20186;-65
2022/11/03 09:24:53;;;;;;;4.57;4.17;;;14.60;99.90;;;;;;6223429;23;20167;-65
2022/11/03 09:27:18;;;;;;;9.50;5.93;;;14.60;99.90;;;;;;6223523;23;20257;-66
2022/11/03 09:29:44;;;;;;;4.47;4.17;;;14.70;99.90;;;;;;6211755;23;20155;-66
2022/11/03 09:32:10;;;;;;;5.00;4.70;;;14.70;99.90;;;;;;6223524;23;20151;-66
2022/11/03 09:34:36;;;;;;;4.43;4.10;;;14.80;99.90;;;;;;6215059;22;20201;-66
2022/11/03 09:37:02;;;;;;;8.03;4.43;;;14.90;99.90;;;;;;6223340;23;20483;-66
2022/11/03 09:39:27;;;;;;;5.47;4.47;;;15.00;99.90;;;;;;6223053;23;20143;-65
2022/11/03 09:41:56;;;;;;;4.97;4.43;;;15.10;99.90;;;;;;6223034;23;20305;-66
2022/11/03 09:44:22;;;;;;;8.80;4.47;;;15.20;99.90;;;;;;6223299;23;20167;-66
2022/11/03 09:46:49;;;;;;;4.60;4.20;;;15.20;99.90;;;;;;6221530;23;20147;-66
2022/11/03 09:49:16;;;;;;;5.20;4.70;;;15.20;99.90;;;;;;6222603;23;20230;-65
2022/11/03 09:51:42;;;;;;;5.90;4.10;;;15.20;99.90;;;;;;6222832;23;20582;-66
2022/11/03 09:54:14;;;;;;;6.53;3.87;;;15.30;99.90;;;;;;6222812;23;20167;-66
2022/11/03 09:56:40;;;;;;;5.00;3.93;;;15.40;99.90;;;;;;6222744;23;20143;-65
2022/11/03 09:59:18;;;;;;;4.70;4.23;;;15.40;99.90;;;;;;6224628;23;20135;-65
2022/11/03 10:01:47;;;;;;;4.93;4.10;;;15.40;99.90;;;;;;6223912;23;20185;-66
2022/11/03 10:04:13;;;;;;;6.30;3.77;;;15.40;99.90;;;;;;6223737;23;20170;-66
2022/11/03 10:06:39;;;;;;;4.83;4.33;;;15.30;99.90;;;;;;6225310;23;20173;-66
2022/11/03 10:09:07;;;;;;;4.30;4.00;;;15.20;99.90;;;;;;6225278;23;20526;-66
2022/11/03 10:11:34;;;;;;;3.97;3.77;;;15.10;99.90;;;;;;6225165;23;20143;-66
2022/11/03 10:14:00;;;;;;;4.87;4.37;;;15.10;99.90;;;;;;6224743;23;20673;-65
2022/11/03 10:16:26;;;;;;;4.33;3.93;;;15.00;99.90;;;;;;6224703;23;20199;-66
2022/11/03 10:18:52;;;;;;;4.93;4.60;;;15.00;99.90;;;;;;6222787;23;20143;-66
2022/11/03 10:21:26;;;;;;;5.47;5.07;;;15.00;99.90;;;;;;6212722;23;20151;-65
2022/11/03 10:23:52;;;;;;;5.13;4.27;;;15.00;99.90;;;;;;6224732;23;20248;-67
2022/11/03 10:26:19;;;;;;;4.33;3.90;;;14.90;99.90;;;;;;6225328;23;20536;-67
2022/11/03 10:29:02;;;;;;;4.50;4.20;;;15.00;99.90;;;;;;6224891;23;20489;-66
2022/11/03 10:31:49;;;;;;;5.23;4.20;;;15.00;99.90;;;;;;6224651;23;20172;-67
2022/11/03 10:34:31;;;;;;;5.77;4.33;;;15.00;99.90;;;;;;6213444;23;20193;-66
2022/11/03 10:37:21;;;;;;;5.10;4.07;;;15.00;99.90;;;;;;6225383;23;20142;-66
2022/11/03 10:39:48;;;;;;;4.20;3.90;;;15.10;99.90;;;;;;6224278;23;20132;-66
2022/11/03 10:42:21;;;;;;;4.60;4.20;;;15.10;99.90;;;;;;6224917;23;20177;-66
2022/11/03 10:44:50;;;;;;;6.37;4.80;;;15.20;99.90;;;;;;6224647;23;20186;-66
2022/11/03 10:47:30;;;;;;;5.43;3.93;;;15.20;99.90;;;;;;6225261;23;20187;-66
2022/11/03 10:49:55;;;;;;;7.37;5.00;;;15.30;99.90;;;;;;6222071;23;20165;-66
2022/11/03 10:52:26;;;;;;;5.00;4.60;;;15.10;99.90;;;;;;6224741;23;20170;-66
2022/11/03 10:54:55;;;;;;;4.40;4.20;;;15.00;99.90;;;;;;6224192;23;20634;-66
2022/11/03 10:57:21;;;;;;;5.10;4.30;;;14.90;99.90;;;;;;6224840;23;20579;-66
2022/11/03 10:59:49;;;;;;;5.37;4.10;;;14.80;99.90;;;;;;6224219;23;20571;-66
2022/11/03 11:02:26;;;;;;;4.73;4.23;;;14.80;99.90;;;;;;6224755;23;20173;-67
2022/11/03 11:04:58;;;;;;;7.30;4.53;;;14.80;99.90;;;;;;6224558;23;20599;-67
2022/11/03 11:07:30;;;;;;;6.37;4.57;;;14.80;99.90;;;;;;6224583;23;20134;-67
2022/11/03 11:10:24;;;;;;;6.27;4.57;;;14.80;99.90;;;;;;6223367;23;20447;-67
2022/11/03 11:13:02;;;;;;;4.90;4.47;;;14.90;99.90;;;;;;6213505;23;20166;-66
2022/11/03 11:15:42;;;;;;;5.10;3.60;;;14.90;99.90;;;;;;6224554;23;20151;-66
2022/11/03 11:18:09;;;;;;;5.43;3.80;;;14.80;99.90;;;;;;6224818;23;20145;-66
2022/11/03 11:20:41;;;;;;;6.73;4.20;;;14.80;99.90;;;;;;6214053;23;20169;-67
2022/11/03 11:23:25;;;;;;;4.37;4.00;;;14.70;99.90;;;;;;6224094;23;20174;-66
2022/11/03 11:26:25;;;;;;;3.97;3.67;;;14.70;99.90;;;;;;6224492;23;20147;-66
2022/11/03 11:29:10;;;;;;;4.57;4.20;;;14.70;99.90;;;;;;6194791;23;20590;-66
2022/11/03 11:31:36;;;;;;;8.03;4.30;;;14.60;99.90;;;;;;6224355;23;20193;-66
2022/11/03 11:34:20;;;;;;;4.47;4.20;;;14.70;99.90;;;;;;6223869;23;20182;-66
2022/11/03 11:36:54;;;;;;;3.80;3.47;;;14.80;99.90;;;;;;6224255;23;20181;-67
2022/11/03 11:39:23;;;;;;;7.33;4.40;;;14.90;99.90;;;;;;6224200;23;20146;-66
2022/11/03 11:42:18;;;;;;;4.33;4.03;;;14.80;99.90;;;;;;6224046;23;20174;-65
2022/11/03 11:44:49;;;;;;;5.60;5.10;;;14.70;99.90;;;;;;6224047;23;20178;-65
2022/11/03 11:47:25;;;;;;;4.37;4.00;;;14.60;99.90;;;;;;6224660;23;20471;-66
2022/11/03 11:50:06;;;;;;;5.17;4.87;;;14.40;99.90;;;;;;6223980;23;20139;-66
2022/11/03 11:52:45;;;;;;;4.50;4.10;;;14.20;99.90;;;;;;6224278;23;20606;-66
2022/11/03 11:55:31;;;;;;;7.77;4.67;;;14.10;99.90;;;;;;6224213;23;20520;-67
2022/11/03 11:57:59;;;;;;;8.97;5.37;;;14.10;99.90;;;;;;6212471;23;20419;-66
2022/11/03 12:00:28;;;;;;;4.37;4.13;;;14.00;99.90;;;;;;6224085;23;20151;-67
2022/11/03 12:02:55;;;;;;;5.00;4.60;;;14.00;99.90;;;;;;6212122;23;20563;-66
2022/11/03 12:05:31;;;;;;;4.53;4.23;;;13.90;99.90;;;;;;6224033;23;20147;-66
2022/11/03 12:07:57;;;;;;;5.20;4.70;;;13.90;99.90;;;;;;6224385;23;20632;-67
2022/11/03 12:10:29;;;;;;;5.10;4.33;;;13.90;99.90;;;;;;6221655;23;20488;-67
2022/11/03 12:12:57;;;;;;;5.50;5.10;;;14.00;99.90;;;;;;6225823;23;20214;-66
2022/11/03 12:15:55;;;;;;;4.40;4.10;;;14.10;99.90;;;;;;6229888;23;20642;-67
2022/11/03 12:18:32;;;;;;;5.60;4.37;;;14.20;99.90;;;;;;6227240;23;20158;-66
2022/11/03 12:21:00;;;;;;;4.63;4.20;;;14.20;99.90;;;;;;6223502;23;20142;-66
2022/11/03 12:23:40;;;;;;;19.53;4.53;;;14.40;99.90;;;;;;6223940;23;20185;-66
2022/11/03 12:26:36;;;;;;;4.60;4.30;;;14.50;99.90;;;;;;6223988;23;20205;-65
2022/11/03 12:29:04;;;;;;;4.70;4.40;;;14.50;99.90;;;;;;6202759;23;20155;-66
2022/11/03 12:31:30;;;;;;;5.43;4.77;;;14.50;99.90;;;;;;6223609;23;20143;-66
2022/11/03 12:33:55;;;;;;;5.67;5.00;;;14.50;99.90;;;;;;6223638;23;20185;-67
2022/11/03 12:36:21;;;;;;;4.70;4.30;;;14.50;99.90;;;;;;6223783;23;20154;-66
2022/11/03 12:38:47;;;;;;;5.33;4.57;;;14.50;99.90;;;;;;6223920;23;20147;-66
2022/11/03 12:41:24;;;;;;;6.20;5.67;;;14.60;99.90;;;;;;6223464;23;20159;-67
2022/11/03 12:43:51;;;;;;;4.10;3.87;;;14.60;99.90;;;;;;6223728;23;20256;-66
2022/11/03 12:46:18;;;;;;;4.87;4.47;;;14.50;99.90;;;;;;6223716;23;20230;-66
2022/11/03 12:48:44;;;;;;;4.27;3.93;;;14.40;99.90;;;;;;6223915;23;20582;-66
2022/11/03 12:51:17;;;;;;;6.03;5.53;;;14.20;99.90;;;;;;6223278;23;20143;-66
2022/11/03 12:53:50;;;;;;;4.03;3.83;;;14.20;99.90;;;;;;5088670;27;20946;-65
2022/11/03 12:56:17;;;;;;;4.83;3.93;;;14.20;99.90;;;;;;5088185;28;20409;-65
2022/11/03 12:58:43;;;;;;;5.10;4.70;;;14.10;99.90;;;;;;5079460;28;20174;-64
2022/11/03 13:01:09;;;;;;;5.30;4.90;;;14.10;99.90;;;;;;5068287;28;20162;-65
2022/11/03 13:03:35;;;;;;;4.97;4.10;;;14.10;99.90;;;;;;5075411;28;20564;-65
2022/11/03 13:06:03;;;;;;;4.60;4.30;;;14.00;99.90;;;;;;5088625;28;20169;-65
2022/11/03 13:08:32;;;;;;;5.13;4.60;;;14.10;99.90;;;;;;5083488;28;20178;-66
2022/11/03 13:10:58;;;;;;;5.87;4.57;;;14.10;99.90;;;;;;5075795;28;20538;-65
2022/11/03 13:13:24;;;;;;;4.50;4.20;;;14.10;99.90;;;;;;5087841;28;20205;-65
2022/11/03 13:15:51;;;;;;;5.73;4.20;;;14.20;99.90;;;;;;5074468;28;20311;-65
2022/11/03 13:18:17;;;;;;;5.17;4.70;;;14.30;99.90;;;;;;5070938;28;20173;-65
2022/11/03 13:20:43;;;;;;;5.43;4.90;;;14.40;99.90;;;;;;5088241;28;20169;-65
2022/11/03 13:23:09;;;;;;;5.03;4.73;;;14.40;99.90;;;;;;5086774;28;20165;-66
2022/11/03 13:25:35;;;;;;;5.10;4.80;;;14.40;99.90;;;;;;5088064;28;20177;-66